Tiempo atmosférico en la estación meteorológica de Asturias Aeropuerto, Asturias (127 m.)



Fecha
DESCASC
Temp. máxima en grados centígrados (hora)
DESCASC
Temp. mínima en grados centígrados (hora)
DESCASC
Temp. media en grados centígrados
DESCASC
Racha de viento máxima en m/sg (hora)
DESCASC
Velocidad máxima media en intervalos de 10 minutos(hora)
DESCASC
Precipitaciones diarias en mm
DESCASC
Precipitaciones de 00:00 a 06:00 en mm
DESCASC
Precipitaciones de 06:00 a 12:00 en mm
DESCASC
Precipitaciones de 12:00 a 18:00 en mm
DESCASC
Precipitaciones de 18:00 a 24:00 en mm
DESCASC
15-08-2019 21.8 (16:10) 14.5 (23:59) 18.1 7.22 (03:20) 4.17 (18:00) 0.7 0.7 0 0 0
14-08-2019 24.2 (13:30) 13.8 (00:00) 19 9.17 (20:40) 6.94 (20:50) -- 0 -- 0 0.4
13-08-2019 21.8 (16:20) 12.2 (00:00) 17 9.17 (14:20) 5.56 (15:00) 0 0 0 0 0
12-08-2019 21 (15:50) 12.3 (00:00) 16.7 10.83 (12:10) 6.67 (12:10) 0 0 0 0 0
11-08-2019 21.7 (15:20) 14.8 (00:00) 18.3 13.89 (16:10) 9.72 (16:10) 1.3 0 0.5 0.8 0
10-08-2019 22.6 (14:50) 16.8 (00:00) 19.7 10.28 (03:20) 6.94 (03:20) 0 0 0 0 0
09-08-2019 27.9 (16:00) 19.7 (00:00) 23.8 16.11 (17:40) 9.17 (17:40) 0.5 0.5 0 0 0
08-08-2019 29.2 (14:20) 19.7 (00:00) 24.5 7.22 (07:40) 4.17 (08:00) 1.5 0.1 0 1.4 0
07-08-2019 25.2 (13:00) 16.8 (00:00) 21 8.89 (07:50) 4.72 (14:00) 2 0 0 0 2
06-08-2019 23 (14:30) 16.3 (00:00) 19.6 9.17 (10:50) 3.61 (09:00) 0.4 0 0 0 0.4
05-08-2019 23.3 (15:30) 17.4 (00:00) 20.3 7.22 (07:50) 3.06 (14:50) 0 0 0 0 0
04-08-2019 22.1 (15:00) 16.8 (00:00) 19.4 4.72 (12:50) 3.06 (13:30) 0 0 0 0 0
03-08-2019 22.8 (17:20) 16.4 (00:00) 19.6 5.83 (16:00) 3.06 (00:30) 0 0 0 0 0
02-08-2019 23.6 (15:50) 14.2 (00:00) 18.9 10.28 (15:30) 7.22 (16:00) 0 0 0 0 0
01-08-2019 21.8 (16:50) 16.8 (00:00) 19.3 8.33 (18:50) 5 (16:20) 0.6 0 0.6 0 0
31-07-2019 21 (14:00) 11.9 (00:00) 16.4 9.72 (17:40) 6.11 (15:10) 0 0 0 0 0
30-07-2019 20.8 (15:30) 15 (00:00) 17.9 10.28 (03:10) 6.67 (03:10) 0 0 0 0 0
29-07-2019 24.3 (13:40) 15.1 (00:00) 19.7 16.39 (16:50) 11.94 (18:30) 0 0 0 0 0
28-07-2019 22.8 (18:30) 13 (00:00) 17.9 9.17 (09:30) 5.83 (15:40) 0 0 0 0 0
27-07-2019 20 (17:50) 14.4 (00:00) 17.2 -- (--) -- (--) -- 0.2 7.7 -- 3.3
26-07-2019 20.9 (15:10) 16.1 (00:00) 18.5 8.33 (15:00) 5.56 (15:10) 0.5 0.1 0 0 0.4
25-07-2019 25.7 (14:40) 17.6 (00:00) 21.7 9.17 (07:20) 6.11 (15:50) 6.9 0 0 0.3 6.6
24-07-2019 25.7 (13:10) 16.9 (00:00) 21.3 8.89 (15:00) 5.56 (15:10) 0 0 0 0 0
23-07-2019 22.7 (12:10) 18.2 (00:00) 20.5 9.17 (18:40) 6.39 (18:30) 0 0 0 0 0
22-07-2019 23 (14:40) 19.9 (00:00) 21.4 8.33 (16:10) 5.28 (16:30) 0.7 0 0 0 0.7
21-07-2019 21.5 (19:20) 17.7 (00:00) 19.6 7.22 (19:00) 4.72 (19:10) 3.4 0 3 0.4 0
20-07-2019 23.3 (12:20) 16.9 (00:00) 20.1 6.11 (13:30) 3.61 (13:30) 0 0 0 0 0
19-07-2019 23.1 (17:00) 15.7 (00:00) 19.4 7.78 (15:50) 5.56 (14:10) 0 0 0 0 0

Gráficas

Temp. máximas Temp. mínimas Temp. medias Precipitaciones Rachas de viento máximas Velocidades máximas media en intervalos de 10 minutos

Datos horarios

Fecha y hora oficial Temperatura (ºC) Velocidad del viento (km/h) Dirección del viento Racha (km/h) Dirección de racha Precipitación (mm) Presión (hPa) Tendencia (hPa) Humedad (%)
2019-08-17 23:00:00 20.3 7 Sudeste -- -- 0 996.6 -0.6 85
2019-08-17 22:00:00 21.5 8 Sudeste 9 Sudeste 0 997 -0.4 80
2019-08-17 21:00:00 24.4 5 Norte 9 Norte 0 997.2 -0.7 71
2019-08-17 20:00:00 25.8 6 Este 13 Este 0 997.2 -0.9 64
2019-08-17 19:00:00 26.3 9 Este 15 Este 0 997.4 -1.2 63
2019-08-17 18:00:00 25.8 7 Nordeste 13 Este 0 997.9 -1.2 65
2019-08-17 17:00:00 26.1 7 Nordeste 17 Nordeste 0 998.1 -1.2 64
2019-08-17 16:00:00 25.8 9 Norte 17 Nordeste 0 998.6 -1 64
2019-08-17 15:00:00 25.9 7 Norte 17 Norte 0 999.1 -0.7 62
2019-08-17 14:00:00 25.9 8 Norte 17 Noroeste 0 999.3 -0.7 61
2019-08-17 13:00:00 25.8 8 Norte 17 Noroeste 0 999.6 -0.7 58
2019-08-17 12:00:00 26.2 8 Noroeste 18 Sudoeste 0 999.8 -0.5 57
2019-08-17 11:00:00 24.6 10 Sudoeste 21 Sur 0 1000 -0.3 64
2019-08-17 10:00:00 20.8 12 Sudoeste 24 Sudoeste 0 1000.3 -0.1 78
2019-08-17 09:00:00 18.1 13 Sudoeste 26 Sudoeste 0 1000.3 0.2 89
2019-08-17 08:00:00 16.8 12 Sudoeste 24 Sur 0 1000.3 -0.1 93
2019-08-17 07:00:00 16.3 9 Sudoeste 15 Sudoeste 0 1000.4 0 95
2019-08-17 06:00:00 16.8 5 Sudoeste 9 Sudoeste 0 1000.1 -0.6 94
2019-08-17 05:00:00 17 10 Sudoeste 18 Sudoeste 0 1000.4 -1 94
2019-08-17 04:00:00 17.6 12 Sudoeste 22 Sudoeste 0 1000.4 -1.4 91
2019-08-17 03:00:00 17.5 14 Sudoeste 21 Sudoeste 0 1000.7 -1.4 91
2019-08-17 02:00:00 17.7 10 Sur 21 Sur 0 1001.4 -1.1 89
2019-08-17 01:00:00 17.8 13 Sur 18 Sur 0 1001.8 -0.4 89
2019-08-17 00:00:00 17.6 10 Sur 15 Sur 0 1002.1 -0.2 89
2019-08-16 23:00:00 17.4 0 Calma 8 Sur 0 1002.5 0.4 90
2019-08-16 22:00:00 18.6 4 Sur 11 Sur 0 1002.2 -0.1 86
2019-08-16 21:00:00 20.2 6 Noroeste 11 Noroeste 0 1002.3 0 79
2019-08-16 20:00:00 20.1 5 Oeste 15 Oeste 0 1002.1 -0.9 76
2019-08-16 19:00:00 20.4 9 Noroeste 22 Noroeste 0 1002.3 -0.7 81
2019-08-16 18:00:00 20.5 9 Noroeste 24 Noroeste 0 1002.3 -0.7 79
2019-08-16 17:00:00 21.1 13 Noroeste 30 Noroeste 0 1003 0 78
2019-08-16 16:00:00 21.2 15 Noroeste 24 Noroeste 0 1003 -0.4 77
2019-08-16 15:00:00 20.9 16 Noroeste 24 Noroeste 0 1003 -0.7 81
2019-08-16 14:00:00 20.8 15 Noroeste 24 Noroeste 0 1003 -0.4 81
2019-08-16 13:00:00 20.5 12 Noroeste 21 Noroeste 0 1003.4 -0.5 78
2019-08-16 12:00:00 19.8 14 Noroeste 18 Noroeste 0 1003.7 -0.2 78
2019-08-16 11:00:00 20.3 4 Sur 13 Oeste 0 1003.4 -0.4 73
2019-08-16 10:00:00 17.4 7 Sudoeste 13 Sudoeste 0 1003.9 0 83
2019-08-16 09:00:00 15.4 7 Sudoeste 17 Sur 0 1003.9 0 89
2019-08-16 08:00:00 13.4 11 Sudoeste 26 Oeste 0 1003.8 -0.5 95
2019-08-16 07:00:00 13.7 10 Sudoeste 22 Sudoeste 0 1003.9 -0.9 94
2019-08-16 06:00:00 13.8 13 Sudoeste 21 Sudoeste 0 1003.9 -1.5 94
2019-08-16 05:00:00 14.3 10 Sudoeste 22 Sudoeste 0 1004.3 -1.3 92
2019-08-16 04:00:00 14.7 16 Sudoeste 22 Sur 0 1004.8 -1.6 91
2019-08-16 03:00:00 15 13 Sur 21 Sudoeste 0 1005.4 -1 90
2019-08-16 02:00:00 15.2 13 Sudoeste 17 Sudoeste 0 1005.6 -1.5 88
2019-08-16 01:00:00 14.4 9 Sudeste 11 Sudeste 0 1006.4 -0.9 92
2019-08-16 00:00:00 14.8 9 Sudeste 13 Sudeste 0 1006.4 -0.8 89
2019-08-15 23:00:00 15 10 Sudeste 15 Sudeste 0 1007.1 0.4 87
2019-08-15 22:00:00 17.3 12 Este 17 Este 0 1007.3 0.2 77
2019-08-15 21:00:00 18.9 10 Este 22 Nordeste 0 1007.2 -0.5 71
2019-08-15 20:00:00 19.9 13 Este 24 Nordeste 0 1006.7 -1.2 66
2019-08-15 19:00:00 20.5 13 Este 22 Este 0 1007.1 -1.2 63
2019-08-15 18:00:00 21.2 15 Este 22 Este 0 1007.7 -0.7 63
2019-08-15 17:00:00 21.2 11 Norte 21 Norte 0 1007.9 -0.6 64
2019-08-15 16:00:00 21.3 10 Nordeste 18 Norte 0 1008.3 -0.4 65
2019-08-15 15:00:00 20.9 8 Norte 18 Norte 0 1008.4 -0.1 68
2019-08-15 14:00:00 20.5 8 Norte 17 Norte 0 1008.5 0.2 71
2019-08-15 13:00:00 20.3 7 Noroeste 15 Noroeste 0 1008.7 0.4 75
2019-08-15 12:00:00 19.8 0 Calma 11 Noroeste 0 1008.5 0.4 72
2019-08-15 11:00:00 19.2 4 Oeste 9 Oeste 0 1008.3 0.4 74
2019-08-15 10:00:00 18.2 4 Sudoeste 17 Sur 0 1008.3 0.6 82
2019-08-15 09:00:00 17.5 5 Sudoeste 9 Sudoeste 0 1008.1 0.5 86
2019-08-15 08:00:00 16.8 7 Sudoeste 24 Sudoeste 0 1007.9 0.4 89
2019-08-15 07:00:00 16.9 8 Oeste 22 Noroeste 0 1007.7 0.1 91
2019-08-15 06:00:00 16.9 9 Oeste 17 Oeste 0 1007.6 -0.1 91
2019-08-15 05:00:00 16.7 11 Oeste 21 Oeste 0 1007.5 -0.1 93
2019-08-15 04:00:00 16.8 13 Oeste 26 Oeste 0 1007.6 0.1 95
2019-08-15 03:00:00 16.7 14 Noroeste 24 Noroeste 0.2 1007.7 0.3 99
2019-08-15 02:00:00 17.2 10 Noroeste 24 Oeste 0.5 1007.6 0.4 99
2019-08-15 01:00:00 17.6 13 Oeste 21 Oeste 0 1007.5 0.9 98
2019-08-15 00:00:00 18.2 12 Oeste 21 Noroeste 0 1007.4 1.5 99
2019-08-14 23:00:00 18.6 9 Noroeste 22 Oeste 0.1 1007.2 1.5 98
2019-08-14 22:00:00 19.1 10 Noroeste 30 Oeste 0.3 1006.6 1 98
2019-08-14 21:00:00 19.8 20 Oeste 33 Noroeste 0 1005.9 0.2 93
2019-08-14 20:00:00 20.4 17 Oeste 26 Oeste 0 1005.7 0 91
2019-08-14 19:00:00 21.1 13 Noroeste 26 Noroeste 0 1005.6 0 86
2019-08-14 18:00:00 22.4 16 Oeste 26 Oeste 0 1005.7 0.3 79
2019-08-14 17:00:00 22.2 13 Oeste 22 Oeste 0 1005.7 0.2 78
2019-08-14 16:00:00 22 9 Noroeste 17 Noroeste 0 1005.6 0.2 73
2019-08-14 15:00:00 22.2 7 Noroeste 18 Noroeste 0 1005.4 0 67
2019-08-14 14:00:00 23.4 10 Noroeste 18 Noroeste 0 1005.5 0.3 58
2019-08-14 13:00:00 21.7 9 Norte 15 Oeste 0 1005.4 0.4 67
2019-08-14 12:00:00 22.3 10 Oeste 17 Oeste -- 1005.4 0.6 56
2019-08-14 11:00:00 21 6 Sudoeste 13 Sudoeste -- 1005.2 0.3 66
2019-08-14 10:00:00 19.6 10 Sudoeste 24 Sudoeste 0 1005 0.1 73
2019-08-14 09:00:00 16.8 12 Sudoeste 22 Sudoeste 0 1004.8 -0.3 82
2019-08-14 08:00:00 14.6 12 Sudoeste 26 Sudoeste 0 1004.9 0.1 92
2019-08-14 07:00:00 14.2 6 Sudoeste 13 Oeste 0 1004.9 -0.1 93
2019-08-14 06:00:00 14.2 7 Sudoeste 13 Sudoeste 0 1005.1 0 93
2019-08-14 05:00:00 14.8 8 Sudoeste 17 Sudoeste 0 1004.8 -1 90
2019-08-14 04:00:00 15.2 10 Sudoeste 21 Sudoeste 0 1005 -1.3 89
2019-08-14 03:00:00 15.3 14 Sudoeste 21 Sudoeste 0 1005.1 -1.7 89
2019-08-14 02:00:00 15.4 8 Sudoeste 22 Sudoeste 0 1005.8 -1.2 88
2019-08-14 01:00:00 15.7 10 Sudoeste 18 Sur 0 1006.3 -0.3 87
2019-08-14 00:00:00 15.5 10 Sudeste 13 Sudeste 0 1006.8 0.3 86
2019-08-13 23:00:00 15.5 9 Sudeste 15 Sudeste 0 1007 0.4 87
2019-08-13 22:00:00 17.2 12 Este 21 Este 0 1006.6 0.3 80
2019-08-13 21:00:00 19 16 Este 22 Este 0 1006.5 0.3 72
2019-08-13 20:00:00 19.9 13 Este 24 Este 0 1006.6 0 67
2019-08-13 19:00:00 20.9 14 Este 30 Este 0 1006.3 -0.8 63
2019-08-13 18:00:00 21.3 20 Este 30 Este 0 1006.2 -1.5 63
2019-08-13 17:00:00 21.3 19 Este 32 Este 0 1006.6 -1.5 64
2019-08-13 16:00:00 21.4 15 Nordeste 32 Este 0 1007.1 -0.9 64
2019-08-13 15:00:00 20.7 20 Nordeste 33 Este 0 1007.7 -0.5 65
2019-08-13 14:00:00 21 15 Este 30 Este 0 1008.1 -0.2 67
2019-08-13 13:00:00 20.3 10 Este 21 Este 0 1008 -0.5 68
2019-08-13 12:00:00 18.8 4 Norte 24 Este 0 1008.2 -0.3 75
2019-08-13 11:00:00 18.4 6 Sudoeste 15 Sur 0 1008.3 0.1 74
2019-08-13 10:00:00 15.8 12 Sudoeste 24 Sur 0 1008.5 0.3 83
2019-08-13 09:00:00 13.1 17 Sudoeste 22 Sudoeste 0 1008.5 0.6 93
2019-08-13 08:00:00 12.7 13 Sur 18 Sur 0 1008.2 -0.1 93
2019-08-13 07:00:00 12.5 13 Sudoeste 18 Sudoeste 0 1008.2 -0.2 94
2019-08-13 06:00:00 12.6 9 Sudoeste 13 Sudoeste 0 1007.9 -1.2 92
2019-08-13 05:00:00 13.1 10 Sudoeste 15 Sudoeste 0 1008.3 -1.6 92
2019-08-13 04:00:00 12.8 7 Sur 11 Sudoeste 0 1008.4 -1.7 91
2019-08-13 03:00:00 12.4 8 Sur 9 Sur 0 1009.1 -1.3 91
2019-08-13 02:00:00 13.9 0 Calma 4 Sur 0 1009.9 -0.8 87
2019-08-13 01:00:00 14.3 5 Sudeste -- -- 0 1010.1 0 87
2019-08-13 00:00:00 14.5 5 Sudeste 9 Este 0 1010.4 0.8 84
2019-08-12 23:00:00 16.1 2 Nordeste 5 Nordeste 0 1010.7 1.7 78
2019-08-12 22:00:00 17 3 Nordeste 9 Norte 0 1010.1 1.4 73
2019-08-12 21:00:00 17.6 3 Nordeste 11 Norte 0 1009.6 0.8 73
2019-08-12 20:00:00 18 5 Norte 13 Norte 0 1009 -0.1 73
2019-08-12 19:00:00 18.6 4 Norte 13 Noroeste 0 1008.7 -0.8 68
2019-08-12 18:00:00 19.1 8 Noroeste 22 Noroeste 0 1008.8 -1 67
2019-08-12 17:00:00 20.1 10 Noroeste 22 Noroeste 0 1009.1 -0.7 64
2019-08-12 16:00:00 20.4 13 Noroeste 26 Noroeste 0 1009.5 -0.3 64
2019-08-12 15:00:00 20 15 Noroeste 26 Oeste 0 1009.8 0.4 67
2019-08-12 14:00:00 19.9 15 Noroeste 30 Noroeste 0 1009.8 1 67
2019-08-12 13:00:00 17.4 7 Noroeste 39 Oeste 0 1009.8 1.3 77
2019-08-12 12:00:00 17.4 21 Oeste 32 Oeste 0 1009.4 1.6 72
2019-08-12 11:00:00 17.7 17 Oeste 30 Oeste 0 1008.8 1.4 72
2019-08-12 10:00:00 15.2 11 Sudoeste 26 Oeste 0 1008.5 1.5 78
2019-08-12 09:00:00 14.1 12 Sudoeste 21 Sudoeste 0 1007.8 1.1 80
2019-08-12 08:00:00 13 16 Sudoeste 30 Sudoeste 0 1007.4 0.7 84
2019-08-12 07:00:00 12.6 13 Sudoeste 22 Sudoeste 0 1007 0.2 87
2019-08-12 06:00:00 12.5 13 Sudoeste 22 Sudoeste 0 1006.7 -0.4 89
2019-08-12 05:00:00 12.9 13 Sudoeste 21 Sudoeste 0 1006.7 -0.4 88
2019-08-12 04:00:00 13.1 13 Sudoeste 18 Sudoeste 0 1006.8 -0.4 88
2019-08-12 03:00:00 13.1 13 Sudoeste 18 Sudoeste 0 1007.1 0.1 90
2019-08-12 02:00:00 13.6 12 Sudoeste 30 Oeste 0 1007.1 0.1 89
2019-08-12 01:00:00 14.3 12 Sudoeste 24 Oeste 0 1007.2 0.8 87
2019-08-12 00:00:00 14.8 14 Sudoeste 18 Oeste 0 1007 1.3 87
2019-08-11 23:00:00 16.2 12 Oeste 24 Oeste 0 1007 1.6 79
2019-08-11 22:00:00 16.8 14 Oeste 24 Oeste 0 1006.4 1.3 75
2019-08-11 21:00:00 17.6 18 Oeste 28 Oeste 0 1005.7 0.3 75
2019-08-11 20:00:00 18.9 9 Oeste 21 Oeste 0 1005.4 0.1 70
2019-08-11 19:00:00 18.3 12 Oeste 24 Oeste 0 1005.1 0.4 70
2019-08-11 18:00:00 16.7 15 Oeste 32 Noroeste 0 1005.4 0.9 83
2019-08-11 17:00:00 15.8 12 Sudoeste 50 Noroeste 0.8 1005.3 0.8 82
2019-08-11 16:00:00 19.2 28 Oeste 46 Oeste 0 1004.7 -0.1 71
2019-08-11 15:00:00 21.4 12 Noroeste 26 Noroeste 0 1004.5 -0.1 65
2019-08-11 14:00:00 20.8 14 Noroeste 24 Noroeste 0 1004.5 0.1 66
2019-08-11 13:00:00 19.8 12 Noroeste 24 Noroeste 0 1004.8 0.9 70
2019-08-11 12:00:00 19.7 13 Noroeste 24 Oeste 0 1004.6 0.8 70
2019-08-11 11:00:00 18.6 16 Oeste 26 Noroeste 0 1004.4 1 74
2019-08-11 10:00:00 17.5 10 Oeste 21 Oeste 0 1003.9 0.5 84
2019-08-11 09:00:00 15.9 11 Oeste 18 Oeste 0 1003.8 0.4 91
2019-08-11 08:00:00 15.2 9 Sudoeste 17 Sur 0 1003.4 -0.5 91
2019-08-11 07:00:00 15.5 8 Sudoeste 15 Sudoeste 0.5 1003.4 -0.7 92
2019-08-11 06:00:00 16 7 Sudoeste 15 Sur 0 1003.4 -1.2 86
2019-08-11 05:00:00 16.6 8 Sur 17 Sudoeste 0 1003.9 -1.4 83
2019-08-11 04:00:00 16.6 12 Sudoeste 18 Sudoeste 0 1004.1 -1.3 83
2019-08-11 03:00:00 16.8 9 Sur 15 Sur 0 1004.6 -1.3 83
2019-08-11 02:00:00 17 9 Sudoeste 18 Sudoeste 0 1005.3 -0.7 84
2019-08-11 01:00:00 17.5 10 Sudoeste 15 Sudoeste 0 1005.4 -0.6 83
2019-08-11 00:00:00 17.9 5 Sudoeste 8 Sudoeste 0 1005.9 -0.1 78
2019-08-10 23:00:00 18.1 0 Calma 11 Oeste 0 1006 0.1 77
2019-08-10 22:00:00 18.6 0 Calma 11 Noroeste 0 1006 0.5 80
2019-08-10 21:00:00 19 0 Calma 9 Noroeste 0 1006 0.4 79
2019-08-10 20:00:00 19.5 4 Norte 15 Noroeste 0 1005.9 0.5 79
2019-08-10 19:00:00 20.4 6 Norte 13 Noroeste 0 1005.5 0.3 76
2019-08-10 18:00:00 20.7 9 Noroeste 17 Noroeste 0 1005.6 0.2 74
2019-08-10 17:00:00 21.5 8 Noroeste 18 Norte 0 1005.4 0 72
2019-08-10 16:00:00 21.9 12 Norte 18 Norte 0 1005.2 -0.4 67
2019-08-10 15:00:00 21.9 10 Norte 18 Norte 0 1005.4 -0.4 67
2019-08-10 14:00:00 21.7 10 Norte 21 Noroeste 0 1005.4 0 69
2019-08-10 13:00:00 21.5 12 Noroeste 18 Noroeste 0 1005.6 0.5 71
2019-08-10 12:00:00 20.3 3 Oeste 17 Oeste 0 1005.8 1.1 73
2019-08-10 11:00:00 21.1 8 Noroeste 13 Noroeste 0 1005.4 1.2 70
2019-08-10 10:00:00 20.5 5 Sudoeste 13 Sudoeste 0 1005.1 1.5 60
2019-08-10 09:00:00 19.3 4 Sudoeste 13 Oeste 0 1004.7 1.4 62
2019-08-10 08:00:00 17.5 9 Oeste 22 Oeste 0 1004.2 1.2 69
2019-08-10 07:00:00 17.9 10 Oeste 22 Oeste 0 1003.6 1 62
2019-08-10 06:00:00 18.5 14 Oeste 21 Oeste 0 1003.3 0.9 66
2019-08-10 05:00:00 18.6 7 Noroeste 24 Oeste 0 1003 0.6 70
2019-08-10 04:00:00 19.5 15 Oeste 37 Oeste 0 1002.6 0.5 60
2019-08-10 03:00:00 19.2 17 Oeste 26 Oeste 0 1002.4 0.5 66
2019-08-10 02:00:00 19.4 16 Oeste 24 Oeste 0 1002.4 1 69
2019-08-10 01:00:00 19.7 12 Noroeste 22 Oeste 0 1002.1 1.7 71
2019-08-10 00:00:00 21.3 14 Oeste 30 Oeste 0 1001.9 2.3 54
2019-08-09 23:00:00 22.3 19 Oeste 42 Oeste 0 1001.4 2.6 50
2019-08-09 22:00:00 21.2 23 Oeste 33 Oeste 0 1000.4 2.5 62
2019-08-09 21:00:00 20.8 17 Oeste 35 Oeste 0 999.6 2.2 77
2019-08-09 20:00:00 24.6 14 Oeste 39 Oeste 0 998.8 2.2 47
2019-08-09 19:00:00 25.1 22 Oeste 39 Oeste 0 997.9 1.7 44
2019-08-09 18:00:00 25.7 28 Oeste 58 Sudoeste 0 997.4 1.3 43
2019-08-09 17:00:00 26.1 23 Oeste 41 Oeste 0 996.6 0.9 43
2019-08-09 16:00:00 27.5 27 Oeste 45 Oeste 0 996.2 0.6 41
2019-08-09 15:00:00 26.6 24 Oeste 37 Oeste 0 996.1 1 41
2019-08-09 14:00:00 26.2 6 Noroeste -- -- -- 995.7 0.9 48
2019-08-09 13:00:00 24.6 14 Oeste 32 Oeste 0 995.6 1.3 47
2019-08-09 12:00:00 22.6 18 Sudoeste 37 Oeste 0 995.1 1.5 53
2019-08-09 11:00:00 21.4 18 Sudoeste 37 Oeste 0 994.8 1.8 56
2019-08-09 10:00:00 20.7 17 Sudoeste 35 Oeste 0 994.3 1.8 65
2019-08-09 09:00:00 20.4 10 Oeste 21 Oeste 0 993.6 1.4 79
2019-08-09 08:00:00 20.1 7 Sur 18 Sur 0 993 0.7 97
2019-08-09 07:00:00 20.2 4 Norte 13 Oeste 0 992.5 0.5 98
2019-08-09 06:00:00 20.3 6 Noroeste 11 Noroeste 0 992.2 0 98
2019-08-09 05:00:00 20.6 4 Sudoeste 11 Este 0.5 992.3 0.3 97
2019-08-09 04:00:00 20.1 10 Sudeste 13 Sudeste 0 992 0.9 97
2019-08-09 03:00:00 20.4 3 Norte 17 Noroeste 0 992.2 0.6 97
2019-08-09 02:00:00 21.2 7 Noroeste 30 Noroeste 0 992 0.6 95
2019-08-09 01:00:00 22.5 5 Nordeste 15 Sudeste 0 991.1 0 86
2019-08-09 00:00:00 21.8 7 Sudeste 21 Este 0 991.6 0.7 91
2019-08-08 23:00:00 22 6 Norte 17 Noroeste 0 991.4 0.5 86
2019-08-08 22:00:00 22.7 2 Sur 13 Nordeste 0 991.1 0.1 85
2019-08-08 21:00:00 24.8 3 Sudoeste 11 Noroeste 0 990.9 -0.6 78
2019-08-08 20:00:00 25.4 2 Sudoeste 13 Oeste 0 990.9 -1.1 80
2019-08-08 19:00:00 26.2 4 Nordeste 13 Nordeste 0 991 -1.2 69
2019-08-08 18:00:00 23.6 5 Norte 22 Oeste 0 991.5 -1.2 79
2019-08-08 17:00:00 24.4 6 Norte 15 Este 1.4 992 -1.1 81
2019-08-08 16:00:00 26.7 14 Este 22 Este 0 992.2 -1.4 62
2019-08-08 15:00:00 28.2 8 Norte 17 Nordeste 0 992.7 -1.2 65
2019-08-08 14:00:00 28.1 10 Norte 18 Nordeste 0 993.1 -1 60
2019-08-08 13:00:00 28.8 11 Este 18 Este 0 993.6 -0.7 61
2019-08-08 12:00:00 27.3 7 Este 11 Este 0 993.9 -0.2 69
2019-08-08 11:00:00 25.9 7 Sudoeste 24 Sudoeste 0 994.1 0.1 68
2019-08-08 10:00:00 23.1 13 Sudoeste 24 Sudoeste 0 994.3 0.2 79
2019-08-08 09:00:00 20.8 14 Sudoeste 22 Sur 0 994.1 -0.2 88
2019-08-08 08:00:00 19.9 15 Sudoeste 26 Sur 0 994 -0.6 93
2019-08-08 07:00:00 19.8 6 Sur 21 Sudoeste 0 994.1 -1 94
2019-08-08 06:00:00 19.8 14 Sur 22 Sudoeste 0 994.3 -1.3 95
2019-08-08 05:00:00 20.1 6 Sur 15 Sur 0 994.6 -1.4 94
2019-08-08 04:00:00 20 0 Calma 8 Sur 0 995.1 -1 93
2019-08-08 03:00:00 20.1 3 Sudeste 11 Sudoeste 0 995.6 -0.6 93
2019-08-08 02:00:00 20.2 10 Sudoeste 18 Sudoeste 0.1 996 -0.4 93
2019-08-08 01:00:00 20.5 12 Sur 17 Sudoeste 0 996.1 -0.2 91
2019-08-08 00:00:00 20 10 Sur 17 Sudoeste 0.1 996.2 -0.1 92
2019-08-07 23:00:00 20.1 8 Sudeste 13 Sudeste 0 996.4 0.4 94
2019-08-07 22:00:00 20.8 9 Sudeste 11 Sur 0.6 996.3 -0.2 96
2019-08-07 21:00:00 20.7 5 Sur 17 Sudeste 0 996.3 -0.4 94
2019-08-07 20:00:00 21 13 Sudeste 21 Sur 1.2 996 -0.9 92
2019-08-07 19:00:00 22.9 7 Sudeste 15 Este 0.1 996.5 -0.2 83
2019-08-07 18:00:00 23.3 5 Norte 11 Norte 0 996.7 0 72
2019-08-07 17:00:00 23.4 5 Norte 13 Este 0 996.9 0.3 80
2019-08-07 16:00:00 23.7 9 Este 18 Este 0 996.7 -0.2 78
2019-08-07 15:00:00 23.8 12 Este 24 Este 0 996.7 -0.6 75
2019-08-07 14:00:00 22.4 17 Este -- -- -- 996.6 -0.8 73
2019-08-07 13:00:00 25.1 8 Este 15 Este 0 996.9 -0.5 70
2019-08-07 12:00:00 22.7 8 Nordeste 15 Nordeste 0 997.3 0 81
2019-08-07 11:00:00 23.3 7 Sudeste 17 Sur 0 997.4 0 78
2019-08-07 10:00:00 19.8 11 Sudoeste 30 Sudoeste 0 997.4 0.1 92
2019-08-07 09:00:00 17.9 15 Sudoeste 22 Sudoeste 0 997.3 0.1 99
2019-08-07 08:00:00 17.3 12 Sur 32 Sur 0 997.4 0.3 99
2019-08-07 07:00:00 17.2 9 Sur 17 Sur 0 997.3 0.1 99
2019-08-07 06:00:00 17.1 9 Sur 15 Sur 0 997.2 -0.4 99
2019-08-07 05:00:00 17.6 9 Sudoeste 13 Sudoeste 0 997.1 -1 98
2019-08-07 04:00:00 18.1 5 Sudoeste 8 Sudoeste 0 997.2 -0.9 98
2019-08-07 03:00:00 19 5 Sudoeste 9 Oeste 0 997.6 -0.8 98
2019-08-07 02:00:00 18.8 6 Oeste 11 Oeste 0 998.1 -0.5 98
2019-08-07 01:00:00 18.8 0 Calma 9 Sudoeste 0 998.1 -0.1 96
2019-08-07 00:00:00 18.8 7 Sudoeste 9 Sudoeste 0 998.4 0.6 98
2019-08-06 23:00:00 19.1 0 Calma 11 Sur 0 998.6 0.1 97
2019-08-06 22:00:00 19.3 3 Sur 11 Sur 0.1 998.2 -0.8 96
2019-08-06 21:00:00 19.9 5 Sudeste 21 Sur 0.3 997.8 -1.7 93
2019-08-06 20:00:00 20.3 6 Sur 15 Sur 0 998.5 -0.5 88
2019-08-06 19:00:00 20.6 4 Este 11 Norte 0 999 0.2 89
2019-08-06 18:00:00 20.9 0 Calma 11 Noroeste 0 999.5 0.5 83
2019-08-06 17:00:00 21.5 5 Noroeste 9 Oeste 0 999 -0.1 80
2019-08-06 16:00:00 22.1 4 Norte 11 Noroeste 0 998.8 -0.4 75
2019-08-06 15:00:00 22.6 6 Norte 17 Noroeste 0 999 -0.1 76
2019-08-06 14:00:00 22.3 8 Noroeste 15 Noroeste 0 999.1 -0.1 75
2019-08-06 13:00:00 21.9 4 Norte 13 Noroeste 0 999.2 0 75
2019-08-06 12:00:00 21.4 4 Noroeste 13 Oeste 0 999.1 0.2 77
2019-08-06 11:00:00 21.3 8 Noroeste 33 Sudoeste 0 999.2 0.3 79
2019-08-06 10:00:00 19.8 9 Sudoeste 21 Sudoeste 0 999.2 0.1 82
2019-08-06 09:00:00 18 13 Sudoeste 18 Sudoeste 0 998.9 -0.2 88
2019-08-06 08:00:00 16.5 10 Sudoeste 24 Sudoeste 0 998.9 -0.5 92
2019-08-06 07:00:00 16.4 11 Sudoeste 13 Sudoeste 0 999.1 -0.9 92
2019-08-06 06:00:00 16.7 9 Sudoeste 17 Sudoeste 0 999.1 -0.8 91
2019-08-06 05:00:00 17.3 10 Sudoeste 17 Sur 0 999.4 -1.2 89
2019-08-06 04:00:00 17.2 10 Sudoeste 17 Sudoeste 0 1000 -0.9 90
2019-08-06 03:00:00 17.4 10 Sur 13 Sur 0 999.9 -- 90
2019-08-06 02:00:00 16.8 6 Sudoeste 9 Sudoeste 0 1000.6 -0.8 94
2019-08-06 01:00:00 17.3 0 Calma 8 Sudeste 0 1000.9 -0.2 93
2019-08-06 00:00:00 17.5 -- -- 4 Sudeste 0 -- -- 92
2019-08-05 23:00:00 18.4 0 Calma 5 Noroeste 0 1001.4 0.6 90
2019-08-05 22:00:00 19.4 2 Noroeste 9 Noroeste 0 1001.1 0.3 87
2019-08-05 21:00:00 20.9 5 Oeste 11 Noroeste 0 1001 0.2 82
2019-08-05 20:00:00 21.8 5 Norte 13 Norte 0 1000.8 -0.2 78
2019-08-05 19:00:00 21.7 9 Norte 17 Norte 0 1000.8 -0.4 78
2019-08-05 18:00:00 22.5 9 Norte 15 Norte 0 1000.8 -0.5 61
2019-08-05 17:00:00 22.6 8 Norte 17 Norte 0 1001 -0.5 64
2019-08-05 16:00:00 22.4 11 Norte 17 Norte 0 1001.2 -0.5 64
2019-08-05 15:00:00 22.2 9 Norte 21 Norte 0 1001.3 -0.6 73
2019-08-05 14:00:00 21.8 9 Norte 17 Norte 0 1001.5 -0.3 76
2019-08-05 13:00:00 21.3 8 Norte 13 Norte 0 1001.7 -0.1 81
2019-08-05 12:00:00 21.2 8 Norte 17 Noroeste 0 1001.9 -0.1 82
2019-08-05 11:00:00 20.6 5 Norte 13 Norte 0 1001.8 -0.2 85
2019-08-05 10:00:00 21.1 3 Este 15 Sur 0 1001.8 -0.3 83
2019-08-05 09:00:00 19.2 0 Calma 18 Sur 0 1002 0.2 90
2019-08-05 08:00:00 17.8 5 Sudoeste 26 Sur 0 1002 0.1 95
2019-08-05 07:00:00 17.8 10 Oeste 15 Oeste 0 1002.1 0 96
2019-08-05 06:00:00 17.8 10 Oeste 15 Oeste 0 1001.8 -0.4 96
2019-08-05 05:00:00 18.2 6 Oeste 15 Sur 0 1001.9 -0.5 91
2019-08-05 04:00:00 18.8 8 Sudoeste 13 Sur 0 1002.1 -0.7 91
2019-08-05 03:00:00 19.1 4 Sur 8 Sudoeste 0 1002.2 -0.9 91
2019-08-05 02:00:00 19.1 3 Sudoeste 8 Oeste 0 1002.4 -0.8 90
2019-08-05 01:00:00 19.1 0 Calma 2 Sudoeste 0 1002.8 -0.1 92
2019-08-05 00:00:00 19.2 0 Calma 4 Sur 0 1003.1 0.3 92
2019-08-04 23:00:00 19.2 0 Calma 8 Oeste 0 1003.2 0.6 92
2019-08-04 22:00:00 19.4 2 Oeste 8 Oeste 0 1002.9 0.7 91
2019-08-04 21:00:00 20.1 6 Oeste 11 Noroeste 0 1002.8 0.8 90
2019-08-04 20:00:00 20.3 8 Noroeste 13 Oeste 0 1002.6 0.9 90
2019-08-04 19:00:00 20.6 8 Noroeste 13 Noroeste 0 1002.2 0.5 85
2019-08-04 18:00:00 20.8 5 Norte 15 Norte 0 1002 0.1 87
2019-08-04 17:00:00 20.9 5 Norte 15 Noroeste 0 1001.7 -0.3 85
2019-08-04 16:00:00 21.2 8 Norte 15 Norte 0 1001.7 -0.6 84
2019-08-04 15:00:00 21.6 8 Noroeste 17 Oeste 0 1001.9 -0.1 83
2019-08-04 14:00:00 20.7 11 Oeste 17 Oeste 0 1002 0.4 86
2019-08-04 13:00:00 19.9 9 Oeste 17 Noroeste 0 1002.3 0.6 90
2019-08-04 12:00:00 19.9 8 Noroeste 13 Noroeste 0 1002 0.4 90
2019-08-04 11:00:00 20.4 6 Noroeste 11 Noroeste 0 1001.6 0.1 90
2019-08-04 10:00:00 19.6 2 Noroeste 9 Norte 0 1001.7 0.4 93
2019-08-04 09:00:00 18.8 2 Sudoeste 8 Oeste 0 1001.6 0.4 96
2019-08-04 08:00:00 18.3 2 Oeste 5 Oeste 0 1001.5 0.2 97
2019-08-04 07:00:00 18 0 Calma 8 Oeste 0 1001.3 -0.1 98
2019-08-04 06:00:00 17.9 5 Sudoeste 8 Sudoeste 0 1001.2 -0.2 99
2019-08-04 05:00:00 16.9 0 Calma 8 Sudoeste 0 1001.3 -0.2 99
2019-08-04 04:00:00 17.2 5 Sudoeste 8 Sudoeste 0 1001.4 -0.4 99
2019-08-04 03:00:00 17.3 0 Calma -- -- 0 1001.4 -0.4 99
2019-08-04 02:00:00 17.3 0 Calma -- -- 0 1001.5 -0.4 99
2019-08-04 01:00:00 18.2 0 Calma -- -- 0 1001.8 0.6 99
2019-08-04 00:00:00 18.3 0 Calma -- -- 0 1001.8 0.8 98
2019-08-03 23:00:00 18.7 0 Calma -- -- 0 1001.9 0.9 97
2019-08-03 22:00:00 19.3 0 Calma 8 Norte 0 1001.2 0.2 94
2019-08-03 21:00:00 20.7 4 Norte 9 Nordeste 0 1001 0.1 88
2019-08-03 20:00:00 21 6 Norte 15 Norte 0 1001 0.1 87
2019-08-03 19:00:00 22.2 9 Nordeste 18 Norte 0 1001 0 83
2019-08-03 18:00:00 22 8 Norte 17 Noroeste 0 1000.9 -0.1 84
2019-08-03 17:00:00 22.5 10 Noroeste 18 Noroeste 0 1000.9 -0.2 82
2019-08-03 16:00:00 22.1 9 Noroeste 21 Norte 0 1001 -0.2 85
2019-08-03 15:00:00 21.6 10 Norte 17 Norte 0 1001 -0.1 86
2019-08-03 14:00:00 21.2 9 Noroeste 15 Noroeste 0 1001.1 0.1 89
2019-08-03 13:00:00 20.1 7 Noroeste 13 Oeste 0 1001.2 0.4 91
2019-08-03 12:00:00 19.6 8 Noroeste 13 Oeste 0 1001.1 0.2 93
2019-08-03 11:00:00 19.5 8 Noroeste 11 Noroeste 0 1001 0.2 92
2019-08-03 10:00:00 19.4 2 Este 8 Oeste 0 1000.8 0 94
2019-08-03 09:00:00 18.6 0 Calma 9 Oeste 0 1000.9 0.1 98
2019-08-03 08:00:00 18 7 Oeste 9 Oeste 0 1000.8 0 98
2019-08-03 07:00:00 17.8 5 Noroeste 11 Oeste 0 1000.8 -0.1 98
2019-08-03 06:00:00 18 5 Noroeste -- -- 0 1000.8 -0.4 96
2019-08-03 05:00:00 18.3 8 Sudeste 13 Sudeste 0 1000.8 -0.9 96
2019-08-03 04:00:00 18.2 10 Sudeste 15 Sudeste 0 1000.9 -1.3 96
2019-08-03 03:00:00 17.2 9 Sudeste 13 Sudeste 0 1001.2 -1.2 97
2019-08-03 02:00:00 17 9 Sudeste 13 Sudeste 0 1001.7 -0.8 97
2019-08-03 01:00:00 16.8 8 Sudeste 13 Sudeste 0 1002.2 0.1 96
2019-08-03 00:00:00 17.6 12 Sudeste 18 Este 0 1002.4 0.4 95
2019-08-02 23:00:00 18.9 15 Este 26 Este 0 1002.5 0.8 93
2019-08-02 22:00:00 19.4 16 Este 24 Este 0 1002.1 0.1 89
2019-08-02 21:00:00 21.1 14 Este 22 Este 0 1002 -0.3 81
2019-08-02 20:00:00 22.1 16 Este 32 Este 0 1001.7 -0.9 77
2019-08-02 19:00:00 22.4 17 Este 33 Nordeste 0 1002 -0.9 76
2019-08-02 18:00:00 22.8 18 Este 35 Nordeste 0 1002.3 -0.7 75
2019-08-02 17:00:00 23 21 Este 35 Este 0 1002.6 -0.5 72
2019-08-02 16:00:00 22.9 26 Este 37 Este 0 1002.9 -0.4 75
2019-08-02 15:00:00 23.3 18 Este 33 Este 0 1003 -0.5 71
2019-08-02 14:00:00 22.3 16 Nordeste 28 Nordeste 0 1003.1 -0.5 75
2019-08-02 13:00:00 22.4 17 Este 24 Este 0 1003.3 -0.2 70
2019-08-02 12:00:00 22 13 Este 21 Sudeste 0 1003.5 0.3 73
2019-08-02 11:00:00 20.9 13 Sudeste 24 Este 0 1003.6 0.9 79
2019-08-02 10:00:00 20.1 12 Sudeste 18 Sudeste 0 1003.5 0.9 81
2019-08-02 09:00:00 18.4 10 Sudeste -- -- 0 1003.2 0.9 88
2019-08-02 08:00:00 14.9 8 Sudeste 13 Sudeste 0 1002.7 0.3 96
2019-08-02 07:00:00 -- -- -- -- -- 0 1002.6 -0.2 --
2019-08-02 06:00:00 14.4 8 Sudeste 13 Sudeste 0 1002.3 -0.8 97
2019-08-02 05:00:00 14.7 11 Sudeste 13 Sudeste 0 1002.4 -1.1 97
2019-08-02 04:00:00 15.1 8 Sudeste -- -- 0 1002.8 -0.8 98
2019-08-02 03:00:00 14.9 9 Sudeste 9 Sudeste 0 1003.1 -0.6 97
2019-08-02 02:00:00 16 4 Este 8 Este 0 1003.5 -0.2 96
2019-08-02 01:00:00 -- -- -- -- -- 0 1003.6 0.5 --
2019-08-02 00:00:00 18.1 10 Este 15 Este 0 1003.7 1 92
2019-08-01 23:00:00 18.8 6 Este 18 Este 0 1003.7 1.4 92
2019-08-01 22:00:00 19.1 9 Este 21 Este 0 1003.1 1 90
2019-08-01 21:00:00 19.6 12 Este 22 Este 0 1002.7 0.8 85
2019-08-01 20:00:00 19.8 14 Este 24 Este 0 1002.3 0.7 87
2019-08-01 19:00:00 20.3 17 Este 30 Este 0 1002.1 0.4 86
2019-08-01 18:00:00 20.7 16 Este 28 Nordeste 0 1001.9 0 84
2019-08-01 17:00:00 21.7 16 Este 28 Nordeste 0 1001.6 -0.3 81
2019-08-01 16:00:00 19.8 15 Este 26 Nordeste 0 1001.7 -0.2 86
2019-08-01 15:00:00 19.8 14 Este 26 Este 0 1001.9 -0.1 87
2019-08-01 14:00:00 19.6 13 Este 26 Este 0 1001.9 0.1 90
2019-08-01 13:00:00 18.9 12 Este 24 Este 0 1001.9 0.5 93
2019-08-01 12:00:00 18 13 Este 22 Este 0.3 1002 1 96
2019-08-01 11:00:00 17.5 9 Este 21 Nordeste 0.3 1001.8 0.9 96
2019-08-01 10:00:00 17.6 11 Este 26 Este 0 1001.4 0.5 93
2019-08-01 09:00:00 18 10 Este 21 Nordeste 0 1001 0 89
2019-08-01 08:00:00 17.5 7 Este 17 Este 0 1000.9 -0.2 88
2019-08-01 07:00:00 16.9 6 Sudeste 17 Este 0 1000.9 -0.7 87
2019-08-01 06:00:00 17.7 9 Este 15 Este 0 1001 -0.8 82
2019-08-01 05:00:00 17.9 6 Este 18 Este 0 1001.1 -1.2 83
2019-08-01 04:00:00 18.2 8 Este 24 Este 0 1001.6 -1.2 82
2019-08-01 03:00:00 18.1 11 Este 18 Este 0 1001.8 -1.1 83
2019-08-01 02:00:00 18.1 9 Este 22 Este 0 1002.3 -1 83
2019-08-01 01:00:00 17.6 12 Este 18 Este 0 1002.8 -0.1 84
2019-08-01 00:00:00 17.4 12 Este 21 Este 0 1002.9 0.1 83
2019-07-31 23:00:00 17.7 12 Este 26 Este 0 1003.3 0.6 81
2019-07-31 22:00:00 18.1 17 Este 28 Este 0 1002.9 -0.3 78
2019-07-31 21:00:00 18.7 16 Este 33 Este 0 1002.8 -0.4 76
2019-07-31 20:00:00 19.6 19 Este 30 Este 0 1002.7 -0.6 72
2019-07-31 19:00:00 20.8 19 Este 33 Este 0 1003.2 -0.3 66
2019-07-31 18:00:00 20.2 18 Este 35 Nordeste 0 1003.2 -0.5 71
2019-07-31 17:00:00 20.1 17 Este 32 Nordeste 0 1003.3 -0.8 73
2019-07-31 16:00:00 20.2 15 Este 33 Este 0 1003.5 -1.2 72
2019-07-31 15:00:00 20.8 20 Este 32 Este 0 1003.7 -1.4 66
2019-07-31 14:00:00 20.6 17 Este 32 Este 0 1004.1 -1.1 70
2019-07-31 13:00:00 19 15 Nordeste 28 Nordeste 0 1004.7 -0.8 76
2019-07-31 12:00:00 19.5 12 Nordeste 21 Nordeste 0 1005.1 -0.3 73
2019-07-31 11:00:00 19.1 10 Este 18 Este 0 1005.2 0 72
2019-07-31 10:00:00 18 10 Sudeste 13 Sudeste 0 1005.5 0.4 75
2019-07-31 09:00:00 14.6 9 Sur 18 Sudoeste 0 1005.4 0 87
2019-07-31 08:00:00 12.6 13 Sudoeste 18 Sudoeste 0 1005.2 -0.3 93
2019-07-31 07:00:00 12.7 11 Sur 17 Sudoeste 0 1005.1 -0.6 92
2019-07-31 06:00:00 12.8 12 Sur 17 Sudoeste 0 1005.4 -0.8 92
2019-07-31 05:00:00 12.2 8 Sur 9 Sur 0 1005.5 -1.1 93
2019-07-31 04:00:00 12 8 Sur 9 Sur 0 1005.7 -1.4 91
2019-07-31 03:00:00 12.9 5 Sur 8 Sur 0 1006.2 -1 89
2019-07-31 02:00:00 14.4 7 Sur 11 Sur 0 1006.6 -0.6 83
2019-07-31 01:00:00 14.4 5 Sudoeste 8 Sur 0 1007.1 0.3 84
2019-07-31 00:00:00 15.4 0 Calma 4 Oeste 0 1007.2 0.6 80
2019-07-30 23:00:00 16.9 2 Norte 8 Noroeste 0 1007.2 0.7 73
2019-07-30 22:00:00 17.3 4 Noroeste 9 Oeste 0 1006.8 0.3 72
2019-07-30 21:00:00 17.7 4 Noroeste 15 Noroeste 0 1006.6 -0.1 71
2019-07-30 20:00:00 18 8 Noroeste 18 Noroeste 0 1006.5 -0.2 70
2019-07-30 19:00:00 18.7 10 Noroeste 28 Noroeste 0 1006.5 -0.2 66
2019-07-30 18:00:00 20 15 Noroeste 26 Noroeste 0 1006.7 -0.2 65
2019-07-30 17:00:00 20.1 15 Noroeste 28 Noroeste 0 1006.7 -0.3 64
2019-07-30 16:00:00 20.4 16 Noroeste 26 Noroeste 0 1006.7 -0.2 66
2019-07-30 15:00:00 19.8 14 Noroeste 28 Noroeste 0 1006.9 0.2 69
2019-07-30 14:00:00 19.8 18 Oeste 32 Oeste 0 1007 0.9 71
2019-07-30 13:00:00 19.8 20 Oeste 32 Oeste 0 1006.9 0.8 66
2019-07-30 12:00:00 18.2 16 Oeste 32 Noroeste 0 1006.7 1.3 68
2019-07-30 11:00:00 18.1 18 Oeste 28 Oeste 0 1006.1 1.2 63
2019-07-30 10:00:00 17.2 11 Oeste 21 Sudoeste 0 1006.1 1.7 66
2019-07-30 09:00:00 16.6 12 Sudoeste 33 Oeste 0 1005.4 1.3 67
2019-07-30 08:00:00 15.5 14 Oeste 30 Oeste 0 1004.9 0.8 69
2019-07-30 07:00:00 15 15 Sudoeste 33 Oeste 0 1004.4 0.4 70
2019-07-30 06:00:00 15.7 18 Oeste 35 Oeste 0 1004.1 0.3 67
2019-07-30 05:00:00 15.7 15 Oeste 30 Oeste 0 1004.1 0.5 69
2019-07-30 04:00:00 15.9 14 Oeste 37 Oeste 0 1004 1 67
2019-07-30 03:00:00 16.2 21 Oeste 33 Oeste 0 1003.8 1.1 67
2019-07-30 02:00:00 16.4 14 Oeste 32 Oeste 0 1003.6 1.5 65
2019-07-30 01:00:00 16.3 15 Oeste 26 Oeste 0 1003 2 65
2019-07-30 00:00:00 16.7 15 Oeste 42 Oeste 0 1002.7 2.1 71
2019-07-29 23:00:00 17.6 23 Oeste 55 Oeste 0 1002.1 2 69
2019-07-29 22:00:00 18.1 37 Oeste 58 Noroeste 0 1001 1.6 72
2019-07-29 21:00:00 18.3 37 Oeste 58 Oeste 0 1000.6 1.7 74
2019-07-29 20:00:00 19.3 35 Oeste 58 Oeste 0 1000.1 1.6 75
2019-07-29 19:00:00 20 38 Oeste 58 Oeste 0 999.4 1.4 71
2019-07-29 18:00:00 20.5 38 Oeste 55 Oeste 0 998.9 1.5 68
2019-07-29 17:00:00 20.4 40 Oeste 59 Oeste 0 998.5 1.4 69
2019-07-29 16:00:00 20.6 36 Oeste 54 Oeste 0 998 1.2 69
2019-07-29 15:00:00 20.6 37 Oeste 50 Noroeste 0 997.4 0.8 70
2019-07-29 14:00:00 23 22 Oeste 50 Oeste 0 997.1 0.9 56
2019-07-29 13:00:00 23 29 Oeste 48 Oeste 0 996.8 0.8 49
2019-07-29 12:00:00 22 24 Oeste 50 Oeste 0 996.6 0.9 59
2019-07-29 11:00:00 20.9 28 Oeste 45 Oeste 0 996.2 1 62
2019-07-29 10:00:00 19.8 22 Oeste 35 Oeste 0 996 1.4 75
2019-07-29 09:00:00 18.7 22 Oeste 33 Oeste 0 995.7 1.2 77
2019-07-29 08:00:00 17.7 11 Oeste 32 Oeste 0 995.2 0.7 80
2019-07-29 07:00:00 15.8 10 Sudoeste 17 Sudoeste 0 994.6 0.3 92
2019-07-29 06:00:00 15.9 7 Sudoeste 9 Sudoeste 0 994.5 0.1 94
2019-07-29 05:00:00 15.6 3 Sudeste 13 Sudoeste 0 994.5 -0.2 91
2019-07-29 04:00:00 17 10 Sudoeste 26 Sudoeste 0 994.3 -0.6 90
2019-07-29 03:00:00 16.9 9 Sudoeste 22 Sur 0 994.4 -0.3 91
2019-07-29 02:00:00 16.9 8 Sudoeste 13 Sudoeste 0 994.7 0.1 90
2019-07-29 01:00:00 17.8 7 Sudoeste 15 Oeste 0 994.9 0.5 86
2019-07-29 00:00:00 18.7 9 Sudoeste 15 Sudoeste 0 994.7 0.3 78
2019-07-28 23:00:00 18.2 11 Sudeste 18 Sudeste 0 994.6 -0.1 86
2019-07-28 22:00:00 18.5 17 Sudeste 21 Sudeste 0 994.4 -0.5 83
2019-07-28 21:00:00 20.7 15 Este 28 Este 0 994.4 -1.1 75
2019-07-28 20:00:00 21.9 16 Este 26 Este 0 994.7 -1.6 67
2019-07-28 19:00:00 22.3 18 Este 32 Este 0 994.9 -1.9 64
2019-07-28 18:00:00 22.3 17 Este 30 Este 0 995.5 -2 65
2019-07-28 17:00:00 21.9 19 Este 32 Este 0 996.3 -1.7 69
2019-07-28 16:00:00 21.3 18 Este 32 Este 0 996.8 -1.9 74
2019-07-28 15:00:00 20.9 15 Este 26 Nordeste 0 997.5 -1.4 74
2019-07-28 14:00:00 21.2 13 Este 22 Este 0 998 -1 71
2019-07-28 13:00:00 20.5 9 Norte 18 Norte 0 998.7 -0.6 76
2019-07-28 12:00:00 19.1 8 Norte 15 Norte 0 998.9 -0.3 76
2019-07-28 11:00:00 19.5 3 Nordeste 18 Sudoeste 0 999 -0.4 71
2019-07-28 10:00:00 16.7 11 Sur 33 Sur 0 999.3 0 82
2019-07-28 09:00:00 14.8 12 Sudoeste 26 Sudoeste 0 999.2 -0.2 89
2019-07-28 08:00:00 13.2 17 Sudoeste 30 Sudoeste 0 999.4 -0.3 95
2019-07-28 07:00:00 13 16 Sudoeste 22 Sudoeste 0 999.3 -0.5 95
2019-07-28 06:00:00 13.5 14 Sudoeste 21 Sudoeste 0 999.4 -0.9 95
2019-07-28 05:00:00 13.9 10 Sudoeste 21 Sudoeste 0 999.7 -0.8 95
2019-07-28 04:00:00 14.2 8 Sudoeste 17 Sudoeste 0 999.8 -0.8 95
2019-07-28 03:00:00 14.7 13 Sudoeste 21 Sudoeste 0 1000.3 -0.3 95
2019-07-28 02:00:00 14.8 11 Sudoeste 17 Sudoeste 0 1000.5 -0.3 96
2019-07-28 01:00:00 15.1 10 Sudoeste 17 Sudoeste 0 1000.6 0.5 97
2019-07-28 00:00:00 15.4 7 Sudoeste 9 Sudoeste 0.2 1000.6 0.8 95
2019-07-27 23:00:00 15.7 7 Oeste 17 Noroeste 3.1 1000.8 1.4 95
2019-07-26 12:00:00 19.5 9 Noroeste 21 Oeste 0 1001.7 0.7 79
2019-07-26 11:00:00 18.8 13 Oeste 21 Noroeste 0 1001.5 0.7 78
2019-07-26 10:00:00 18.1 13 Oeste 26 Oeste 0 1001.6 1 80
2019-07-26 09:00:00 18 9 Oeste 13 Oeste 0 1001 0.4 93
2019-07-26 08:00:00 17.3 8 Sudoeste 15 Oeste 0 1000.8 0.3 96
2019-07-26 07:00:00 17.2 0 Calma 13 Oeste 0 1000.6 0.1 95
2019-07-26 06:00:00 17.5 10 Oeste 24 Oeste 0 1000.6 -0.2 95
2019-07-26 05:00:00 17.5 12 Oeste 17 Oeste 0 1000.5 -0.5 95
2019-07-26 04:00:00 17.8 0 Calma 8 Sur 0 1000.5 -0.6 98
2019-07-26 03:00:00 17.7 2 Sudoeste 13 Oeste 0.1 1000.8 -0.4 98
2019-07-26 02:00:00 18 3 Sudoeste 8 Sudoeste 0 1001 0.3 98
2019-07-26 01:00:00 18 2 Sudoeste 8 Sudoeste 0 1001.1 0.8 99
2019-07-26 00:00:00 18 2 Sudoeste 9 Noroeste 2 1001.2 1.4 98
2019-07-25 23:00:00 18.3 8 Sur 21 Sur 3.3 1000.7 0.9 96
2019-07-25 22:00:00 18.4 8 Sudeste 13 Sudeste 0.4 1000.3 0.9 95
2019-07-25 21:00:00 18.7 7 Sudeste 17 Sur 0.7 999.8 0.4 94
2019-07-25 20:00:00 18.9 0 Calma 9 Norte 0.2 999.8 0.4 90
2019-07-25 19:00:00 19.4 3 Norte 11 Oeste 0 999.4 0.7 88
2019-07-25 18:00:00 19.3 7 Noroeste 17 Oeste 0.3 999.4 1.5 92
2019-07-25 17:00:00 19.7 9 Noroeste 26 Oeste 0 999.4 2.2 90
2019-07-25 16:00:00 20 19 Oeste 32 Oeste 0 998.7 1.7 91
2019-07-25 15:00:00 22.9 10 Norte 24 Noroeste 0 997.9 1.1 80
2019-07-25 14:00:00 24 9 Nordeste 17 Norte 0 997.2 0.7 73
2019-07-25 13:00:00 23.3 6 Norte 15 Nordeste 0 997 0.3 75
2019-07-25 12:00:00 23 6 Norte 11 Norte 0 996.8 0.2 75
2019-07-25 11:00:00 22.8 4 Noroeste 9 Oeste 0 996.5 0.4 76
2019-07-25 10:00:00 21.9 7 Noroeste 11 Noroeste 0 996.7 0.9 85
2019-07-25 09:00:00 20.6 6 Oeste 13 Sudoeste 0 996.6 1.3 93
2019-07-25 08:00:00 19.2 9 Oeste 33 Sudoeste 0 996.1 0.6 97
2019-07-25 07:00:00 18.4 9 Sudoeste 15 Sudoeste 0 995.8 -0.1 99
2019-07-25 06:00:00 18.1 7 Sudeste 9 Sudeste 0 995.3 -0.8 98
2019-07-25 05:00:00 18.2 8 Sur 9 Sur 0 995.5 -1.2 98
2019-07-25 04:00:00 19 5 Sur 13 Sudeste 0 995.9 -1.3 98
2019-07-25 03:00:00 19 12 Sudeste 15 Sudeste 0 996.1 -1.4 98
2019-07-25 02:00:00 19.8 2 Sur 8 Sur 0 996.7 -0.9 99
2019-07-25 01:00:00 19.8 0 Calma 9 Oeste 0 997.2 -0.2 98
2019-07-25 00:00:00 20 0 Calma 5 Sur 0 997.5 0.4 96
2019-07-24 23:00:00 20.5 4 Sudoeste 9 Oeste 0 997.6 1.1 97
2019-07-24 22:00:00 20.6 0 Calma 9 Noroeste 0 997.4 1.1 96
2019-07-24 21:00:00 20.8 10 Noroeste 15 Noroeste 0 997.1 0.6 94
2019-07-24 20:00:00 22.3 6 Este 17 Este 0 996.5 -0.3 89
2019-07-24 19:00:00 23.5 11 Nordeste 22 Este 0 996.3 -0.7 82
2019-07-24 18:00:00 23.9 14 Este 24 Este 0 996.5 -0.9 80
2019-07-24 17:00:00 24.3 18 Este 28 Nordeste 0 996.8 -0.9 77
2019-07-24 16:00:00 23.9 18 Este 32 Este 0 997 -1.3 78
2019-07-24 15:00:00 24.3 18 Este 32 Este 0 997.4 -1.8 76
2019-07-24 14:00:00 24.5 19 Este 30 Este 0 997.7 -2.1 75
2019-07-24 13:00:00 24.9 15 Este 26 Este 0 998.3 -2.1 73
2019-07-24 12:00:00 23.3 14 Este 22 Este 0 999.2 -1.3 77
2019-07-24 11:00:00 22.5 9 Este 17 Este 0 999.8 -0.4 83
2019-07-24 10:00:00 21.6 5 Sur 15 Sudoeste 0 1000.4 0.3 88
2019-07-24 09:00:00 19.5 5 Sur 17 Sudeste 0 1000.5 0.5 96
2019-07-24 08:00:00 17.9 9 Sudeste 13 Sudeste 0 1000.2 0.2 99
2019-07-24 07:00:00 17.2 10 Sudeste 13 Sudeste 0 1000.1 -0.6 98
2019-07-24 06:00:00 17.3 8 Sudeste 11 Sudeste 0 1000 -1 98
2019-07-24 05:00:00 18 5 Sur 5 Sur 0 1000 -1.7 96
2019-07-24 04:00:00 18.6 4 Oeste 11 Oeste 0 1000.7 -1.1 96
2019-07-24 03:00:00 18.1 5 Noroeste 9 Noroeste 0 1001 -1.1 95
2019-07-24 02:00:00 18.2 4 Noroeste 9 Noroeste 0 1001.7 0 95
2019-07-24 01:00:00 18.2 0 Calma 9 Sudeste 0 1001.8 0.2 95
2019-07-24 00:00:00 18.4 6 Sudeste 17 Sudeste 0 1002.1 0.1 94
2019-07-23 23:00:00 19.3 5 Sudeste 13 Este 0 1001.7 0.7 91
2019-07-23 22:00:00 19.7 4 Este 9 Este 0 1001.6 0.2 89
2019-07-23 21:00:00 20.6 4 Norte 28 Noroeste 0 1002 0.7 83
2019-07-23 20:00:00 21.2 17 Noroeste 28 Noroeste 0 1001 0.2 84
2019-07-23 19:00:00 20.3 22 Oeste 33 Oeste 0 1001.4 1.1 91
2019-07-23 18:00:00 19.8 19 Noroeste 32 Oeste 0 1001.3 1.4 96
2019-07-23 17:00:00 19.1 13 Oeste 26 Noroeste 0 1000.8 1.1 98
2019-07-23 16:00:00 20.8 17 Noroeste 26 Oeste 0 1000.3 0.8 92
2019-07-23 15:00:00 21.5 12 Noroeste 24 Oeste 0 999.9 1.2 90
2019-07-23 14:00:00 20.6 13 Noroeste 21 Oeste 0 999.7 0.4 93
2019-07-23 13:00:00 20.9 6 Noroeste 15 Noroeste 0 999.5 -0.3 92
2019-07-23 12:00:00 22.2 6 Noroeste 13 Noroeste 0 998.7 -0.5 88
2019-07-23 11:00:00 21.1 3 Noroeste 15 Noroeste 0 999.3 0.2 92
2019-07-23 10:00:00 19.2 14 Noroeste 24 Oeste 0 999.8 0.4 99
2019-07-23 09:00:00 20.4 7 Sur 15 Sur 0 999.2 -0.2 95
2019-07-23 08:00:00 19.8 4 Sudoeste 13 Sudoeste 0 999.1 -1 97
2019-07-23 07:00:00 19.2 6 Sudoeste 13 Sur 0 999.4 -1.2 98
2019-07-23 06:00:00 19.5 6 Sudoeste 15 Sudoeste 0 999.4 -1.5 97
2019-07-23 05:00:00 20.1 8 Sudoeste 11 Sudoeste 0 1000.1 -1.3 96
2019-07-23 04:00:00 20 2 Sudeste 8 Sudeste 0 1000.6 -0.6 98
2019-07-23 03:00:00 20 4 Sudeste 9 Este 0 1000.9 -1.4 98
2019-07-23 02:00:00 19.7 5 Este 9 Este 0 1001.4 -1.5 99
2019-07-23 01:00:00 19.5 3 Oeste 15 Este 0 1001.2 -1.6 98
2019-07-23 00:00:00 20.1 11 Este 17 Este 0.2 1002.3 -0.5 97
2019-07-22 23:00:00 20.4 12 Este 30 Sudeste 0.3 1002.9 0 96
2019-07-22 22:00:00 20.5 11 Este 18 Este 0 1002.8 -0.3 94
2019-07-22 21:00:00 20.6 11 Este 18 Este 0 1002.8 -0.8 95
2019-07-22 20:00:00 20.8 10 Este 24 Este 0.2 1002.9 -1 94
2019-07-22 19:00:00 22.5 13 Este 24 Este 0 1003.1 -1.2 85
2019-07-22 18:00:00 22.1 11 Este 26 Este 0 1003.6 -0.9 84
2019-07-22 17:00:00 21.9 18 Este 30 Este 0 1003.9 -0.9 86
2019-07-22 16:00:00 22.4 18 Este 26 Este 0 1004.3 -1 86
2019-07-22 15:00:00 22.6 13 Este 28 Este 0 1004.5 -1 84
2019-07-22 14:00:00 22.5 13 Este 22 Nordeste 0 1004.8 -0.9 84
2019-07-22 13:00:00 22.3 13 Este 26 Este 0 1005.3 -0.6 83
2019-07-22 12:00:00 22.2 14 Este 22 Nordeste 0 1005.5 -0.4 84
2019-07-22 11:00:00 21.5 9 Este 18 Este 0 1005.7 -0.4 88
2019-07-22 10:00:00 21.1 11 Este 21 Este 0 1005.9 -0.2 87
2019-07-22 09:00:00 20.5 13 Este 22 Sudeste 0 1005.9 -0.3 88
2019-07-22 08:00:00 20.2 12 Este 21 Este 0 1006.1 -0.4 90
2019-07-22 07:00:00 20.1 10 Este 21 Este 0 1006.1 -0.5 91
2019-07-22 06:00:00 20 11 Este 18 Este 0 1006.2 -0.8 92
2019-07-22 05:00:00 20.1 11 Este 22 Este 0 1006.5 -1.1 92
2019-07-22 04:00:00 20.2 10 Este 21 Este 0 1006.6 -1.5 92
2019-07-22 03:00:00 20.1 9 Este 22 Sudeste 0 1007 -1.4 92
2019-07-22 02:00:00 20.3 15 Sudeste 24 Sudeste 0 1007.6 -0.7 92
2019-07-22 01:00:00 20.4 14 Este 28 Este 0 1008.1 0.2 93
2019-07-22 00:00:00 20.3 17 Este 26 Este 0 1008.4 0.8 91
2019-07-21 23:00:00 20.3 15 Este 24 Este 0 1008.3 1.1 88
2019-07-21 22:00:00 20.3 11 Este 22 Este 0 1007.9 0.7 90
2019-07-21 21:00:00 20.6 14 Este 26 Este 0 1007.6 0.1 91
2019-07-21 20:00:00 20.9 15 Este 26 Este 0 1007.2 -0.5 89
2019-07-21 19:00:00 20.9 17 Este 26 Este 0 1007.2 -0.6 90
2019-07-21 18:00:00 20.8 10 Este 22 Este 0 1007.5 0 90
2019-07-21 17:00:00 20.6 10 Este 21 Este 0 1007.7 0.6 92
2019-07-21 16:00:00 20 11 Este 18 Este 0 1007.8 0.3 95
2019-07-21 15:00:00 19.2 8 Nordeste 15 Este 0 1007.5 0.1 96
2019-07-21 14:00:00 19.1 9 Este 15 Este 0.2 1007.1 -0.3 98
2019-07-21 13:00:00 18.9 5 Este 18 Nordeste 0.2 1007.5 0.2 98
2019-07-21 12:00:00 18.6 5 Nordeste 9 Nordeste 0 1007.4 0.4 97
2019-07-21 11:00:00 18.7 4 Noroeste 9 Norte 0.6 1007.4 1 97
2019-07-21 10:00:00 18.2 2 Oeste 11 Sur 1.1 1007.3 1.3 98
2019-07-21 09:00:00 17.8 3 Sudoeste 8 Sudoeste 1 1007 1.2 97
2019-07-21 08:00:00 17.9 4 Sudoeste 8 Sur 0.3 1006.4 0.5 95
2019-07-21 07:00:00 18 4 Sudoeste 8 Sudoeste 0 1006 -0.1 93
2019-07-21 06:00:00 18 4 Sudoeste 11 Sur 0 1005.8 -0.4 93
2019-07-21 05:00:00 18 5 Sudoeste 11 Sur 0 1005.9 -0.6 93
2019-07-21 04:00:00 18 8 Sur 13 Sur 0 1006.1 -0.6 93
2019-07-21 03:00:00 18.1 5 Sudoeste 9 Sudoeste 0 1006.2 -0.5 93
2019-07-21 02:00:00 18.2 0 Calma 8 Sudoeste 0 1006.5 -0.2 93
2019-07-21 01:00:00 18.2 6 Sudoeste 11 Sudoeste 0 1006.7 0.7 92
2019-07-21 00:00:00 18.2 7 Sudoeste 11 Sudoeste 0 1006.7 1.2 93
2019-07-20 23:00:00 18.4 5 Sudoeste 11 Oeste 0 1006.7 1.7 94
2019-07-20 22:00:00 18.6 9 Oeste 13 Oeste 0 1006 1.5 93
2019-07-20 21:00:00 18.8 10 Oeste 18 Oeste 0 1005.5 1.2 93
2019-07-20 20:00:00 19.3 9 Oeste 13 Noroeste 0 1005 1 91
2019-07-20 19:00:00 19.7 10 Oeste 17 Noroeste 0 1004.5 0.7 91
2019-07-20 18:00:00 20 8 Oeste 15 Oeste 0 1004.3 0.9 91
2019-07-20 17:00:00 20.9 8 Noroeste 18 Noroeste 0 1004 1.1 87
2019-07-20 16:00:00 22 12 Noroeste 21 Noroeste 0 1003.8 1.2 82
2019-07-20 15:00:00 22.6 11 Noroeste 21 Noroeste 0 1003.4 1.2 80
2019-07-20 14:00:00 22.2 11 Noroeste 22 Noroeste 0 1002.9 1.2 77
2019-07-20 13:00:00 22.5 10 Noroeste 21 Noroeste 0 1002.6 1.1 72
2019-07-20 12:00:00 22.4 9 Noroeste 15 Noroeste 0 1002.2 1.2 72
2019-07-20 11:00:00 21.7 9 Noroeste 13 Noroeste 0 1001.7 1 79
2019-07-20 10:00:00 20.4 4 Sur 9 Sur 0 1001.5 1 83
2019-07-20 09:00:00 19.1 5 Sudoeste 9 Sudoeste 0 1001 0.6 89
2019-07-20 08:00:00 17.9 9 Oeste 13 Oeste 0 1000.7 0.7 95
2019-07-20 07:00:00 17.5 8 Oeste 13 Oeste 0 1000.5 0.5 95
2019-07-20 06:00:00 17.8 9 Oeste 15 Oeste 0 1000.4 0.5 94
2019-07-20 05:00:00 17.5 5 Sudoeste 11 Oeste 0 1000 0.2 94
2019-07-20 04:00:00 18 8 Noroeste 13 Noroeste 0 1000 -0.1 93
2019-07-20 03:00:00 17.6 0 Calma 9 Sudoeste 0 999.9 -0.2 94
2019-07-20 02:00:00 17.6 0 Calma 11 Oeste 0 999.8 -0.3 95
2019-07-20 01:00:00 18.3 8 Oeste 11 Oeste 0 1000.1 0.2 94
2019-07-20 00:00:00 18 4 Oeste 9 Oeste 0 1000.1 0.5 95
2019-07-19 23:00:00 18.3 2 Oeste 11 Oeste 0 1000.1 0.8 95
2019-07-19 22:00:00 18.9 7 Oeste 9 Oeste 0 999.9 0.7 92
2019-07-19 21:00:00 20.9 5 Norte 13 Norte 0 999.6 0.3 83
2019-07-19 20:00:00 21.5 8 Norte 15 Nordeste 0 999.3 -0.1 81
2019-07-19 19:00:00 22.2 8 Nordeste 22 Nordeste 0 999.2 -0.7 78
2019-07-19 18:00:00 22.5 11 Nordeste 24 Nordeste 0 999.3 -1.1 78
2019-07-19 17:00:00 23 14 Este 28 Nordeste 0 999.4 -1.2 75
2019-07-19 16:00:00 22.4 15 Este 28 Este 0 999.9 -0.8 74
2019-07-19 15:00:00 22.1 12 Nordeste 26 Este 0 1000.4 -0.4 79
2019-07-19 14:00:00 22.3 15 Este 24 Este 0 1000.6 -0.3 77
2019-07-19 13:00:00 21.9 14 Este 22 Este 0 1000.7 -0.7 77
2019-07-19 12:00:00 20.6 12 Norte 18 Nordeste 0 1000.8 -0.6 78
2019-07-19 11:00:00 20 5 Norte 13 Nordeste 0 1000.9 -0.6 77
2019-07-19 10:00:00 19.7 4 Nordeste 18 Sudoeste 0 1001.4 -0.1 80
2019-07-19 09:00:00 17.6 12 Sudoeste 18 Sudoeste 0 1001.4 -0.3 87
2019-07-19 08:00:00 16.1 10 Sudoeste 21 Sudoeste 0 1001.5 -0.6 92
2019-07-19 07:00:00 15.8 10 Sudoeste 15 Sudoeste 0 1001.5 -1.3 93
2019-07-19 06:00:00 15.9 12 Sudoeste 17 Sudoeste 0 1001.7 -1.7 94
2019-07-19 05:00:00 15.8 7 Sur 11 Sudoeste 0 1002.1 -1.7 95
2019-07-19 04:00:00 16.4 9 Sur 11 Sur 0 1002.8 -1.2 95
2019-07-19 03:00:00 16.5 6 Sudoeste 9 Sudoeste 0 1003.4 -0.7 95
2019-07-19 02:00:00 17 3 Sur 8 Sur 0 1003.8 -0.4 93
2019-07-19 01:00:00 17.6 5 Sur 147 Sudeste 0 1004 0 92
2019-07-19 00:00:00 18.4 5 Sudeste 11 Sudeste 0 1004.1 0.1 90